sensor_id;sensor_type;location;lat;lon;timestamp;P1;durP1;ratioP1;P2;durP2;ratioP2
75814;SDS011;70031;45.570;14.228;2023-08-24T04:31:07;21.30;;;11.63;;
75814;SDS011;70031;45.570;14.228;2023-08-24T10:47:23;10.02;;;6.68;;
75814;SDS011;70031;45.570;14.228;2023-08-24T10:49:42;12.13;;;6.85;;
75814;SDS011;70031;45.570;14.228;2023-08-24T10:55:28;7.78;;;6.57;;
75814;SDS011;70031;45.570;14.228;2023-08-24T11:17:24;9.80;;;6.32;;
75814;SDS011;70031;45.570;14.228;2023-08-24T11:31:21;9.18;;;5.80;;
75814;SDS011;70031;45.570;14.228;2023-08-24T11:33:40;8.35;;;5.20;;
75814;SDS011;70031;45.570;14.228;2023-08-24T11:35:46;7.55;;;4.95;;
75814;SDS011;70031;45.570;14.228;2023-08-24T11:47:41;8.57;;;4.68;;
75814;SDS011;70031;45.570;14.228;2023-08-24T11:50:14;8.30;;;4.82;;
75814;SDS011;70031;45.570;14.228;2023-08-24T11:58:23;8.15;;;4.35;;
75814;SDS011;70031;45.570;14.228;2023-08-24T12:00:44;7.63;;;4.25;;
75814;SDS011;70031;45.570;14.228;2023-08-24T12:02:53;10.80;;;4.85;;
75814;SDS011;70031;45.570;14.228;2023-08-24T12:05:25;6.68;;;3.78;;
75814;SDS011;70031;45.570;14.228;2023-08-24T12:07:51;6.05;;;4.20;;
75814;SDS011;70031;45.570;14.228;2023-08-24T12:10:30;7.97;;;4.70;;
75814;SDS011;70031;45.570;14.228;2023-08-24T12:18:24;8.52;;;3.90;;
75814;SDS011;70031;45.570;14.228;2023-08-24T12:47:46;7.60;;;4.35;;
75814;SDS011;70031;45.570;14.228;2023-08-24T12:49:50;7.13;;;4.67;;
75814;SDS011;70031;45.570;14.228;2023-08-24T12:52:05;8.02;;;4.55;;
75814;SDS011;70031;45.570;14.228;2023-08-24T12:54:07;7.05;;;4.55;;
75814;SDS011;70031;45.570;14.228;2023-08-24T12:56:11;7.57;;;4.73;;
75814;SDS011;70031;45.570;14.228;2023-08-24T12:58:14;8.70;;;4.40;;
75814;SDS011;70031;45.570;14.228;2023-08-24T13:00:33;8.00;;;4.80;;
75814;SDS011;70031;45.570;14.228;2023-08-24T13:02:33;8.50;;;4.77;;
75814;SDS011;70031;45.570;14.228;2023-08-24T13:04:33;8.70;;;4.60;;
75814;SDS011;70031;45.570;14.228;2023-08-24T13:06:34;8.75;;;4.50;;
75814;SDS011;70031;45.570;14.228;2023-08-24T13:11:05;8.13;;;4.53;;
75814;SDS011;70031;45.570;14.228;2023-08-24T13:13:11;6.75;;;4.22;;
75814;SDS011;70031;45.570;14.228;2023-08-24T13:15:19;7.72;;;4.20;;
75814;SDS011;70031;45.570;14.228;2023-08-24T13:17:20;7.50;;;4.55;;
75814;SDS011;70031;45.570;14.228;2023-08-24T13:19:21;6.30;;;4.63;;
75814;SDS011;70031;45.570;14.228;2023-08-24T13:21:27;7.53;;;4.30;;
75814;SDS011;70031;45.570;14.228;2023-08-24T13:23:28;6.33;;;4.70;;
75814;SDS011;70031;45.570;14.228;2023-08-24T13:25:37;9.73;;;5.05;;
75814;SDS011;70031;45.570;14.228;2023-08-24T13:28:19;6.72;;;4.90;;
75814;SDS011;70031;45.570;14.228;2023-08-24T13:30:23;6.68;;;4.40;;
75814;SDS011;70031;45.570;14.228;2023-08-24T13:32:23;9.20;;;4.65;;
75814;SDS011;70031;45.570;14.228;2023-08-24T13:34:41;8.73;;;4.97;;
75814;SDS011;70031;45.570;14.228;2023-08-24T13:36:42;6.93;;;4.68;;
75814;SDS011;70031;45.570;14.228;2023-08-24T13:38:43;6.43;;;4.67;;
75814;SDS011;70031;45.570;14.228;2023-08-24T13:41:04;6.97;;;5.07;;
75814;SDS011;70031;45.570;14.228;2023-08-24T13:49:42;7.20;;;5.30;;
75814;SDS011;70031;45.570;14.228;2023-08-24T13:52:31;7.22;;;4.90;;
75814;SDS011;70031;45.570;14.228;2023-08-24T13:54:48;8.15;;;5.60;;
75814;SDS011;70031;45.570;14.228;2023-08-24T14:10:03;7.70;;;5.28;;
75814;SDS011;70031;45.570;14.228;2023-08-24T14:12:24;9.13;;;5.97;;
75814;SDS011;70031;45.570;14.228;2023-08-24T14:15:34;8.10;;;5.60;;
75814;SDS011;70031;45.570;14.228;2023-08-24T14:18:16;7.75;;;5.75;;
75814;SDS011;70031;45.570;14.228;2023-08-24T14:20:21;9.20;;;6.32;;
75814;SDS011;70031;45.570;14.228;2023-08-24T14:24:58;7.63;;;6.00;;
75814;SDS011;70031;45.570;14.228;2023-08-24T14:27:01;7.00;;;5.38;;
75814;SDS011;70031;45.570;14.228;2023-08-24T14:29:14;8.10;;;5.75;;
75814;SDS011;70031;45.570;14.228;2023-08-24T14:37:03;8.43;;;5.70;;
75814;SDS011;70031;45.570;14.228;2023-08-24T14:39:15;9.52;;;5.95;;
75814;SDS011;70031;45.570;14.228;2023-08-24T14:41:50;8.25;;;5.57;;
75814;SDS011;70031;45.570;14.228;2023-08-24T14:43:53;8.23;;;5.45;;
75814;SDS011;70031;45.570;14.228;2023-08-24T14:45:56;7.90;;;5.72;;
75814;SDS011;70031;45.570;14.228;2023-08-24T14:48:02;7.43;;;5.50;;
75814;SDS011;70031;45.570;14.228;2023-08-24T14:50:03;6.72;;;5.57;;
75814;SDS011;70031;45.570;14.228;2023-08-24T14:52:09;10.85;;;6.07;;
75814;SDS011;70031;45.570;14.228;2023-08-24T14:54:10;9.85;;;6.10;;
75814;SDS011;70031;45.570;14.228;2023-08-24T14:56:22;7.85;;;5.80;;
75814;SDS011;70031;45.570;14.228;2023-08-24T14:58:34;10.02;;;6.32;;
75814;SDS011;70031;45.570;14.228;2023-08-24T15:00:34;7.90;;;6.00;;
75814;SDS011;70031;45.570;14.228;2023-08-24T15:02:35;8.73;;;6.28;;
75814;SDS011;70031;45.570;14.228;2023-08-24T15:04:40;9.88;;;6.25;;
75814;SDS011;70031;45.570;14.228;2023-08-24T15:09:50;8.65;;;6.10;;
75814;SDS011;70031;45.570;14.228;2023-08-24T15:33:21;7.70;;;6.13;;
75814;SDS011;70031;45.570;14.228;2023-08-24T15:35:21;9.07;;;6.68;;
75814;SDS011;70031;45.570;14.228;2023-08-24T15:42:35;9.38;;;6.93;;
75814;SDS011;70031;45.570;14.228;2023-08-24T15:44:35;7.88;;;6.88;;
75814;SDS011;70031;45.570;14.228;2023-08-24T15:46:53;10.95;;;6.82;;
75814;SDS011;70031;45.570;14.228;2023-08-24T16:14:23;8.27;;;6.47;;
75814;SDS011;70031;45.570;14.228;2023-08-24T16:30:36;11.57;;;7.38;;
75814;SDS011;70031;45.570;14.228;2023-08-24T16:38:26;10.20;;;7.22;;
75814;SDS011;70031;45.570;14.228;2023-08-24T16:40:36;11.20;;;7.32;;
75814;SDS011;70031;45.570;14.228;2023-08-24T16:42:37;10.15;;;6.63;;
75814;SDS011;70031;45.570;14.228;2023-08-24T16:47:34;11.20;;;8.52;;
75814;SDS011;70031;45.570;14.228;2023-08-24T16:53:19;14.27;;;8.27;;
75814;SDS011;70031;45.570;14.228;2023-08-24T16:55:25;11.00;;;8.10;;
75814;SDS011;70031;45.570;14.228;2023-08-24T16:57:25;13.80;;;8.50;;
75814;SDS011;70031;45.570;14.228;2023-08-24T16:59:28;10.63;;;8.20;;
75814;SDS011;70031;45.570;14.228;2023-08-24T17:01:33;10.57;;;8.68;;
75814;SDS011;70031;45.570;14.228;2023-08-24T17:03:43;12.45;;;8.57;;
75814;SDS011;70031;45.570;14.228;2023-08-24T17:06:03;11.95;;;8.57;;
75814;SDS011;70031;45.570;14.228;2023-08-24T17:08:07;11.27;;;9.20;;
75814;SDS011;70031;45.570;14.228;2023-08-24T17:10:13;11.13;;;9.23;;
75814;SDS011;70031;45.570;14.228;2023-08-24T17:12:14;11.02;;;8.95;;
75814;SDS011;70031;45.570;14.228;2023-08-24T17:17:20;16.25;;;11.00;;
75814;SDS011;70031;45.570;14.228;2023-08-24T17:19:38;13.63;;;9.82;;
75814;SDS011;70031;45.570;14.228;2023-08-24T17:33:22;12.48;;;9.82;;
75814;SDS011;70031;45.570;14.228;2023-08-24T17:35:40;12.07;;;9.68;;
75814;SDS011;70031;45.570;14.228;2023-08-24T17:47:41;16.60;;;10.50;;
75814;SDS011;70031;45.570;14.228;2023-08-24T17:50:00;11.73;;;10.35;;
75814;SDS011;70031;45.570;14.228;2023-08-24T17:52:13;20.02;;;10.52;;
75814;SDS011;70031;45.570;14.228;2023-08-24T17:54:35;18.58;;;10.93;;
75814;SDS011;70031;45.570;14.228;2023-08-24T17:56:44;17.20;;;10.55;;
75814;SDS011;70031;45.570;14.228;2023-08-24T21:01:40;15.95;;;11.45;;
